Terminal Aerodrome Forecast
Issued by NWS Amarillo, TX

Home | Current Version | Previous Version | Text Only | Print | Product List | Glossary On
Versions: 1 2 3 4 5 6 7 8 9 10 11 12 13
000
FTUS44 KAMA 021100
TAFAMA
TAF
KAMA 021120Z 0212/0312 34024G33KT P6SM BKN100
     FM022200 34016G25KT P6SM SKC
     FM030100 VRB03KT P6SM SKC=

USA.gov is the U.S. government's official web portal to all federal, state and local government web resources and services.